Time;durP1;ratioP1;P1;durP2;ratioP2;P2;SDS_P1;SDS_P2;PMS_P1;PMS_P2;Temp;Humidity;BMP_temperature;BMP_pressure;BME280_temperature;BME280_humidity;BME280_pressure;Samples;Min_cycle;Max_cycle;Signal;HPM_P1;HPM_P2
2022/04/14 00:01:15;;;;;;;1.70;1.10;;;19.60;52.20;;;;;;5070346;28;20045;-68
2022/04/14 00:03:41;;;;;;;2.78;1.35;;;19.60;52.20;;;;;;5069100;28;20052;-68
2022/04/14 00:06:07;;;;;;;2.40;1.30;;;19.60;52.20;;;;;;5070417;28;20075;-69
2022/04/14 00:08:33;;;;;;;2.65;1.15;;;19.60;52.20;;;;;;5069983;28;20033;-70
2022/04/14 00:10:58;;;;;;;2.58;1.38;;;19.60;52.20;;;;;;5069998;28;20498;-69
2022/04/14 00:13:25;;;;;;;2.88;1.40;;;19.60;52.20;;;;;;5069253;28;20502;-68
2022/04/14 00:15:50;;;;;;;3.30;1.27;;;19.60;52.20;;;;;;5069971;28;20049;-69
2022/04/14 00:18:16;;;;;;;2.70;1.27;;;19.60;52.20;;;;;;5069827;28;20053;-69
2022/04/14 00:20:42;;;;;;;2.40;1.20;;;19.60;52.20;;;;;;5070331;28;20041;-69
2022/04/14 00:23:08;;;;;;;3.85;1.30;;;19.60;52.20;;;;;;5068504;28;20044;-69
2022/04/14 00:25:34;;;;;;;2.28;1.20;;;19.60;52.20;;;;;;5070349;28;20047;-68
2022/04/14 00:28:00;;;;;;;2.15;1.30;;;19.60;52.20;;;;;;5069835;28;20045;-69
2022/04/14 00:30:25;;;;;;;2.17;1.20;;;19.60;52.20;;;;;;5070645;28;20040;-69
2022/04/14 00:32:51;;;;;;;1.77;1.10;;;19.60;52.20;;;;;;5054200;28;20488;-69
2022/04/14 00:35:16;;;;;;;2.30;1.20;;;19.60;52.20;;;;;;5050241;28;20043;-69
2022/04/14 00:37:42;;;;;;;1.88;1.08;;;19.60;52.20;;;;;;5049815;28;20060;-69
2022/04/14 00:40:08;;;;;;;2.60;1.40;;;19.60;52.30;;;;;;5049287;28;20048;-68
2022/04/14 00:42:34;;;;;;;1.52;1.20;;;19.60;52.20;;;;;;5049318;28;20110;-69
2022/04/14 00:45:00;;;;;;;1.55;1.10;;;19.60;52.20;;;;;;5049800;28;20492;-69
2022/04/14 00:47:25;;;;;;;2.75;1.17;;;19.60;52.20;;;;;;5049952;28;20045;-68
2022/04/14 00:49:51;;;;;;;1.85;1.20;;;19.60;52.20;;;;;;5049512;28;20071;-68
2022/04/14 00:52:20;;;;;;;2.83;1.20;;;19.60;52.20;;;;;;5049526;28;20041;-69
2022/04/14 00:54:46;;;;;;;2.17;1.10;;;19.60;52.30;;;;;;5053094;28;20041;-69
2022/04/14 00:57:11;;;;;;;2.58;1.20;;;19.50;52.20;;;;;;5052489;28;20480;-69
2022/04/14 00:59:37;;;;;;;2.92;1.30;;;19.60;52.30;;;;;;5053264;28;20037;-69
2022/04/14 01:02:03;;;;;;;2.13;1.42;;;19.50;52.20;;;;;;5053208;28;20041;-69
2022/04/14 01:04:29;;;;;;;2.95;1.35;;;19.50;52.30;;;;;;5053141;28;20073;-68
2022/04/14 01:06:55;;;;;;;3.10;1.23;;;19.50;52.20;;;;;;5053199;28;20400;-68
2022/04/14 01:09:21;;;;;;;2.85;1.30;;;19.50;52.20;;;;;;5052812;28;20175;-69
2022/04/14 01:11:51;;;;;;;2.42;1.38;;;19.60;52.30;;;;;;5051830;28;20076;-69
2022/04/14 01:14:34;;;;;;;2.50;1.15;;;19.50;52.30;;;;;;5053037;28;20122;-68
2022/04/14 01:17:03;;;;;;;2.40;1.30;;;19.50;52.30;;;;;;5051509;28;20057;-69
2022/04/14 01:19:29;;;;;;;2.00;1.20;;;19.50;52.30;;;;;;5052678;28;20121;-69
2022/04/14 01:22:15;;;;;;;4.00;1.50;;;19.50;52.30;;;;;;5055064;28;20065;-68
2022/04/14 01:24:41;;;;;;;2.95;1.20;;;19.50;52.20;;;;;;5072737;28;20430;-68
2022/04/14 01:27:08;;;;;;;2.55;1.15;;;19.50;52.30;;;;;;5072142;28;20036;-68
2022/04/14 01:29:33;;;;;;;2.30;1.20;;;19.50;52.30;;;;;;5072763;28;20045;-68
2022/04/14 01:32:01;;;;;;;3.40;1.50;;;19.50;52.30;;;;;;5072932;28;20040;-69
2022/04/14 01:34:29;;;;;;;2.22;1.10;;;19.50;52.30;;;;;;5072786;28;20051;-68
2022/04/14 01:36:56;;;;;;;3.60;1.45;;;19.50;52.30;;;;;;5072744;28;20049;-69
2022/04/14 01:39:22;;;;;;;3.10;1.30;;;19.50;52.30;;;;;;5071590;28;20381;-68
2022/04/14 01:41:47;;;;;;;1.50;1.17;;;19.50;52.30;;;;;;5070901;28;20393;-68
2022/04/14 01:44:13;;;;;;;3.25;1.30;;;19.50;52.30;;;;;;5073254;28;20043;-68
2022/04/14 01:46:41;;;;;;;2.17;1.30;;;19.50;52.30;;;;;;5072984;28;20040;-68
2022/04/14 01:49:07;;;;;;;1.77;1.30;;;19.40;52.30;;;;;;5071752;28;20040;-68
2022/04/14 01:51:33;;;;;;;1.73;1.30;;;19.50;52.30;;;;;;5072774;28;20041;-68
2022/04/14 01:53:59;;;;;;;2.20;1.17;;;19.50;52.30;;;;;;5072256;28;20056;-69
2022/04/14 01:56:24;;;;;;;2.08;1.30;;;19.40;52.30;;;;;;5070460;28;20040;-68
2022/04/14 01:58:52;;;;;;;3.30;1.48;;;19.40;52.30;;;;;;5072834;28;20051;-69
2022/04/14 02:01:18;;;;;;;1.93;1.30;;;19.50;52.40;;;;;;5056439;28;20051;-68
2022/04/14 02:03:44;;;;;;;1.33;1.00;;;19.40;52.30;;;;;;5051554;28;20275;-68
2022/04/14 02:06:10;;;;;;;1.73;1.23;;;19.40;52.20;;;;;;5052640;28;20499;-69
2022/04/14 02:08:36;;;;;;;2.50;1.40;;;19.40;52.30;;;;;;5051201;28;20052;-68
2022/04/14 02:11:03;;;;;;;3.08;1.50;;;19.40;52.30;;;;;;5051096;28;20041;-68
2022/04/14 02:13:31;;;;;;;2.42;1.25;;;19.40;52.30;;;;;;5052001;28;20053;-68
2022/04/14 02:15:57;;;;;;;2.85;1.48;;;19.40;52.30;;;;;;5051731;28;20080;-69
2022/04/14 02:18:23;;;;;;;1.83;1.20;;;19.40;52.30;;;;;;5051688;28;20147;-69
2022/04/14 02:20:50;;;;;;;2.08;1.35;;;19.40;52.30;;;;;;5051920;28;20500;-69
2022/04/14 02:23:15;;;;;;;2.75;1.10;;;19.40;52.30;;;;;;5064835;28;20044;-69
2022/04/14 02:25:41;;;;;;;3.13;1.30;;;19.40;52.30;;;;;;5071945;28;20036;-68
2022/04/14 02:28:07;;;;;;;1.75;1.30;;;19.40;52.30;;;;;;5070055;28;20041;-69
2022/04/14 02:30:33;;;;;;;1.92;1.23;;;19.40;52.30;;;;;;5071948;28;20046;-69
2022/04/14 02:33:02;;;;;;;1.65;1.33;;;19.40;52.30;;;;;;5071587;28;20040;-69
2022/04/14 02:35:28;;;;;;;2.35;1.20;;;19.40;52.30;;;;;;5072100;28;20033;-68
2022/04/14 02:37:57;;;;;;;1.75;1.30;;;19.40;52.30;;;;;;5071060;28;20524;-68
2022/04/14 02:40:26;;;;;;;1.88;1.30;;;19.40;52.30;;;;;;5071687;28;20605;-68
2022/04/14 02:42:56;;;;;;;2.20;1.30;;;19.40;52.30;;;;;;5070292;28;20032;-68
2022/04/14 02:45:26;;;;;;;2.63;1.25;;;19.40;52.30;;;;;;5071649;28;20033;-69
2022/04/14 02:47:54;;;;;;;2.85;1.30;;;19.40;52.40;;;;;;5069210;28;20094;-68
2022/04/14 02:50:21;;;;;;;2.20;1.30;;;19.30;52.30;;;;;;5051503;28;20095;-68
2022/04/14 02:52:50;;;;;;;2.33;1.30;;;19.30;52.30;;;;;;5054165;28;20040;-69
2022/04/14 02:55:20;;;;;;;5.55;1.40;;;19.40;52.40;;;;;;5064404;28;20400;-69
2022/04/14 02:57:46;;;;;;;2.70;1.38;;;19.40;52.40;;;;;;5070156;28;20041;-68
2022/04/14 03:00:12;;;;;;;2.85;1.20;;;19.40;52.30;;;;;;5070693;28;20039;-68
2022/04/14 03:02:41;;;;;;;2.13;1.30;;;19.30;52.30;;;;;;5071043;28;20123;-69
2022/04/14 03:05:08;;;;;;;2.75;1.40;;;19.30;52.30;;;;;;5070939;28;20032;-69
2022/04/14 03:07:34;;;;;;;1.67;1.17;;;19.30;52.30;;;;;;5071242;28;20442;-68
2022/04/14 03:10:00;;;;;;;3.42;1.35;;;19.30;52.40;;;;;;5070330;28;20040;-69
2022/04/14 03:12:26;;;;;;;1.10;1.00;;;19.30;52.40;;;;;;5070072;28;20075;-68
2022/04/14 03:14:52;;;;;;;2.45;1.23;;;19.30;52.30;;;;;;5070942;28;20177;-69
2022/04/14 03:17:17;;;;;;;2.83;1.48;;;19.30;52.30;;;;;;5070439;28;20520;-68
2022/04/14 03:19:43;;;;;;;1.25;1.10;;;19.30;52.30;;;;;;5070196;28;20053;-69
2022/04/14 03:22:09;;;;;;;3.85;1.33;;;19.30;52.40;;;;;;5070742;28;20075;-69
2022/04/14 03:24:34;;;;;;;2.40;1.48;;;19.30;52.30;;;;;;5070383;28;20097;-68
2022/04/14 03:27:00;;;;;;;2.42;1.40;;;19.30;52.40;;;;;;5068895;28;20041;-69
2022/04/14 03:29:28;;;;;;;2.25;1.40;;;19.30;52.40;;;;;;5071193;28;20040;-69
2022/04/14 03:31:54;;;;;;;1.20;1.00;;;19.30;52.40;;;;;;5070895;28;20534;-69
2022/04/14 03:34:19;;;;;;;3.10;1.40;;;19.30;52.40;;;;;;5070571;28;20036;-68
2022/04/14 03:36:45;;;;;;;1.80;1.20;;;19.30;52.40;;;;;;5070918;28;20414;-68
2022/04/14 03:39:11;;;;;;;1.95;1.20;;;19.30;52.40;;;;;;5070259;28;20044;-68
2022/04/14 03:41:36;;;;;;;2.10;1.50;;;19.30;52.40;;;;;;5069829;28;20049;-69
2022/04/14 03:44:02;;;;;;;3.08;1.23;;;19.30;52.40;;;;;;5051869;28;20142;-68
2022/04/14 03:46:27;;;;;;;2.30;1.35;;;19.30;52.40;;;;;;5050536;28;20404;-68
2022/04/14 03:48:56;;;;;;;2.35;1.45;;;19.20;52.30;;;;;;5048707;28;20234;-68
2022/04/14 03:51:23;;;;;;;2.03;1.40;;;19.20;52.30;;;;;;5050472;28;20129;-68
2022/04/14 03:53:49;;;;;;;2.88;1.42;;;19.20;52.40;;;;;;5050136;28;20040;-68
2022/04/14 03:56:14;;;;;;;3.15;1.27;;;19.20;52.30;;;;;;5049725;28;20112;-68
2022/04/14 03:58:40;;;;;;;2.42;1.40;;;19.20;52.40;;;;;;5049880;28;20041;-68
2022/04/14 04:01:05;;;;;;;2.30;1.40;;;19.20;52.40;;;;;;5050458;28;20404;-69
2022/04/14 04:03:31;;;;;;;1.95;1.30;;;19.20;52.30;;;;;;5050047;28;20051;-69
2022/04/14 04:05:56;;;;;;;2.72;1.27;;;19.20;53.10;;;;;;5050647;28;20080;-68
2022/04/14 04:08:24;;;;;;;2.22;1.50;;;19.20;52.40;;;;;;5049882;28;20037;-68
2022/04/14 04:10:50;;;;;;;3.75;1.60;;;19.20;52.40;;;;;;5050221;28;20488;-68
2022/04/14 04:13:16;;;;;;;1.92;1.40;;;19.20;52.40;;;;;;5049669;28;20048;-68
2022/04/14 04:15:41;;;;;;;2.42;1.40;;;19.20;52.40;;;;;;5050140;28;20045;-69
2022/04/14 04:18:07;;;;;;;1.90;1.25;;;19.20;52.40;;;;;;5049769;28;20053;-69
2022/04/14 04:20:33;;;;;;;2.40;1.50;;;19.20;52.40;;;;;;5049976;28;20045;-68
2022/04/14 04:23:02;;;;;;;2.33;1.40;;;19.20;52.40;;;;;;5061090;28;20044;-68
2022/04/14 04:25:27;;;;;;;1.77;1.20;;;19.20;52.40;;;;;;5070113;28;20041;-68
2022/04/14 04:27:53;;;;;;;1.73;1.30;;;19.20;52.40;;;;;;5071422;28;20044;-68
2022/04/14 04:30:19;;;;;;;2.35;1.40;;;19.20;52.40;;;;;;5073886;28;20516;-68
2022/04/14 04:32:44;;;;;;;2.75;1.45;;;19.20;52.50;;;;;;5058198;28;20072;-68
2022/04/14 04:35:10;;;;;;;3.60;1.48;;;19.20;52.50;;;;;;5053659;28;20095;-68
2022/04/14 04:37:35;;;;;;;2.65;1.38;;;19.20;52.50;;;;;;5053840;28;20047;-69
2022/04/14 04:40:01;;;;;;;2.75;1.40;;;19.20;52.40;;;;;;5053257;28;20037;-69
2022/04/14 04:42:27;;;;;;;2.63;1.30;;;19.20;52.50;;;;;;5053484;28;20041;-68
2022/04/14 04:44:53;;;;;;;3.45;1.60;;;19.20;52.50;;;;;;5053949;28;20037;-68
2022/04/14 04:47:20;;;;;;;1.58;1.27;;;19.20;52.40;;;;;;5053784;28;20095;-68
2022/04/14 04:49:46;;;;;;;2.33;1.50;;;19.20;52.40;;;;;;5052278;28;20049;-69
2022/04/14 04:52:12;;;;;;;3.60;1.50;;;19.20;52.40;;;;;;5053443;28;20497;-69
2022/04/14 04:54:38;;;;;;;1.98;1.40;;;19.20;52.40;;;;;;5053186;28;20041;-68
2022/04/14 04:57:04;;;;;;;2.25;1.30;;;19.20;52.40;;;;;;5052995;28;20041;-68
2022/04/14 04:59:29;;;;;;;1.92;1.20;;;19.20;52.40;;;;;;5053399;28;20079;-68
2022/04/14 05:01:55;;;;;;;2.38;1.33;;;19.10;52.40;;;;;;5053862;28;20075;-69
2022/04/14 05:04:21;;;;;;;2.22;1.40;;;19.10;52.40;;;;;;5053286;28;20040;-69
2022/04/14 05:06:46;;;;;;;2.72;1.42;;;19.10;52.40;;;;;;5052216;28;20457;-69
2022/04/14 05:09:12;;;;;;;2.50;1.30;;;19.10;52.40;;;;;;5053636;28;20056;-68
2022/04/14 05:11:37;;;;;;;2.00;1.20;;;19.10;52.40;;;;;;5052484;28;20041;-68
2022/04/14 05:14:03;;;;;;;2.22;1.30;;;19.10;52.70;;;;;;5053605;28;20062;-68
2022/04/14 05:16:28;;;;;;;2.00;1.42;;;19.10;52.40;;;;;;5053212;28;20057;-69
2022/04/14 05:18:54;;;;;;;2.45;1.30;;;19.10;52.40;;;;;;5053470;28;20049;-68
2022/04/14 05:21:20;;;;;;;1.98;1.27;;;19.10;52.40;;;;;;5062014;28;20075;-69
2022/04/14 05:23:45;;;;;;;1.77;1.20;;;19.10;53.20;;;;;;5073223;28;20044;-68
2022/04/14 05:26:11;;;;;;;2.55;1.20;;;19.10;52.40;;;;;;5072785;28;20042;-68
2022/04/14 05:28:37;;;;;;;2.38;1.50;;;19.10;52.40;;;;;;5073341;28;20036;-68
2022/04/14 05:31:02;;;;;;;1.88;1.30;;;19.10;52.50;;;;;;5072958;28;20399;-68
2022/04/14 05:33:28;;;;;;;1.83;1.40;;;19.10;52.40;;;;;;5072550;28;20044;-68
2022/04/14 05:35:54;;;;;;;2.20;1.30;;;19.10;52.40;;;;;;5072878;28;20048;-68
2022/04/14 05:38:19;;;;;;;3.05;1.42;;;19.10;52.40;;;;;;5071939;28;20456;-68
2022/04/14 05:40:45;;;;;;;1.80;1.20;;;19.10;52.40;;;;;;5072756;28;20551;-69
2022/04/14 05:43:17;;;;;;;1.75;1.17;;;19.10;52.40;;;;;;5071662;28;20032;-68
2022/04/14 05:45:49;;;;;;;2.63;1.80;;;19.10;52.40;;;;;;5067849;28;20043;-69
2022/04/14 05:48:16;;;;;;;2.70;1.40;;;19.10;52.40;;;;;;5055954;28;20138;-69
2022/04/14 05:50:43;;;;;;;3.83;1.50;;;19.10;52.40;;;;;;5072635;28;20051;-68
2022/04/14 05:53:09;;;;;;;2.28;1.30;;;19.10;52.40;;;;;;5072436;28;20076;-68
2022/04/14 05:55:35;;;;;;;2.65;1.60;;;19.10;52.30;;;;;;5072476;28;20043;-68
2022/04/14 05:58:03;;;;;;;2.95;1.30;;;19.10;52.40;;;;;;5071175;28;20488;-68
2022/04/14 06:00:30;;;;;;;2.70;1.70;;;19.10;52.40;;;;;;5072254;28;20064;-69
2022/04/14 06:02:56;;;;;;;2.00;1.38;;;19.10;52.30;;;;;;5072543;28;20068;-68
2022/04/14 06:05:22;;;;;;;2.83;1.23;;;19.10;52.30;;;;;;5072231;28;20041;-69
2022/04/14 06:07:48;;;;;;;2.72;1.60;;;19.20;52.40;;;;;;5072137;28;20139;-68
2022/04/14 06:10:13;;;;;;;3.05;1.50;;;19.10;52.40;;;;;;5071576;28;20131;-69
2022/04/14 06:12:39;;;;;;;2.70;1.48;;;19.20;52.40;;;;;;5071531;28;20072;-68
2022/04/14 06:15:05;;;;;;;2.28;1.58;;;19.20;52.60;;;;;;5071863;28;20103;-69
2022/04/14 06:17:31;;;;;;;2.83;1.60;;;19.20;52.70;;;;;;5071758;28;20056;-69
2022/04/14 06:19:56;;;;;;;4.18;1.40;;;19.20;52.90;;;;;;5071769;28;20113;-68
2022/04/14 06:22:22;;;;;;;3.40;1.80;;;19.20;53.00;;;;;;5071695;28;20491;-68
2022/04/14 06:24:48;;;;;;;2.78;1.75;;;19.20;53.10;;;;;;5071901;28;20032;-68
2022/04/14 06:27:14;;;;;;;2.10;1.60;;;19.30;53.20;;;;;;5069703;28;20560;-68
2022/04/14 06:29:40;;;;;;;2.63;1.75;;;19.30;53.20;;;;;;5067444;28;20041;-68
2022/04/14 06:32:06;;;;;;;2.72;1.85;;;19.30;53.20;;;;;;5071399;28;20044;-69
2022/04/14 06:34:31;;;;;;;3.38;1.52;;;19.30;53.20;;;;;;5071460;28;20483;-69
2022/04/14 06:36:57;;;;;;;4.25;1.70;;;19.40;53.30;;;;;;5072357;28;20048;-68
2022/04/14 06:39:23;;;;;;;3.22;1.70;;;19.30;53.30;;;;;;5071603;28;20463;-69
2022/04/14 06:41:48;;;;;;;2.55;1.35;;;19.40;53.40;;;;;;5071608;28;20099;-69
2022/04/14 06:44:14;;;;;;;3.15;1.52;;;19.40;53.50;;;;;;5070423;28;20047;-69
2022/04/14 06:46:39;;;;;;;3.00;1.80;;;19.40;53.50;;;;;;5071173;28;20071;-69
2022/04/14 06:49:05;;;;;;;4.00;1.83;;;19.50;53.50;;;;;;5071153;28;20081;-69
2022/04/14 06:51:31;;;;;;;2.50;1.52;;;19.50;53.60;;;;;;5071306;28;20105;-69
2022/04/14 06:53:57;;;;;;;3.17;1.67;;;19.50;53.50;;;;;;5070915;28;20452;-69
2022/04/14 06:56:22;;;;;;;2.10;1.35;;;19.60;53.50;;;;;;5071696;28;20051;-69
2022/04/14 06:58:48;;;;;;;2.95;1.52;;;19.70;53.60;;;;;;5069786;28;20071;-69
2022/04/14 07:01:13;;;;;;;3.33;1.70;;;19.70;53.60;;;;;;5071452;28;20075;-68
2022/04/14 07:03:39;;;;;;;2.67;1.48;;;19.70;53.60;;;;;;5070679;28;20075;-68
2022/04/14 07:06:05;;;;;;;3.08;1.45;;;19.80;53.60;;;;;;5071194;28;20032;-69
2022/04/14 07:08:33;;;;;;;2.53;1.63;;;19.80;53.70;;;;;;5070429;28;20040;-68
2022/04/14 07:11:00;;;;;;;3.47;1.45;;;19.90;53.70;;;;;;5071394;28;20052;-69
2022/04/14 07:13:26;;;;;;;2.20;1.42;;;19.90;53.70;;;;;;5069920;28;20060;-68
2022/04/14 07:15:52;;;;;;;3.72;1.50;;;19.90;53.70;;;;;;5071007;28;20044;-68
2022/04/14 07:18:18;;;;;;;1.77;1.42;;;20.00;53.70;;;;;;5070388;28;20040;-68
2022/04/14 07:20:46;;;;;;;2.38;1.20;;;20.10;53.80;;;;;;5070948;28;20047;-69
2022/04/14 07:23:12;;;;;;;2.15;1.27;;;20.10;53.70;;;;;;5070467;28;20119;-69
2022/04/14 07:25:38;;;;;;;2.38;1.38;;;20.10;53.70;;;;;;5070913;28;20128;-69
2022/04/14 07:28:04;;;;;;;2.35;1.30;;;20.20;53.60;;;;;;5069301;28;20053;-69
2022/04/14 07:30:31;;;;;;;1.88;1.25;;;20.20;53.60;;;;;;5070837;28;20037;-68
2022/04/14 07:32:57;;;;;;;2.53;1.40;;;20.30;53.60;;;;;;5070770;28;20052;-69
2022/04/14 07:35:25;;;;;;;1.45;1.15;;;20.30;53.60;;;;;;5070945;28;20041;-69
2022/04/14 07:37:51;;;;;;;2.63;1.40;;;20.40;53.60;;;;;;5070399;28;20051;-69
2022/04/14 07:40:18;;;;;;;1.52;1.23;;;20.40;53.60;;;;;;5069406;28;20050;-69
2022/04/14 07:42:46;;;;;;;2.13;1.17;;;20.40;53.60;;;;;;5069559;28;20447;-69
2022/04/14 07:45:13;;;;;;;2.47;1.17;;;20.40;53.50;;;;;;5070753;28;20082;-69
2022/04/14 07:47:41;;;;;;;2.50;1.20;;;20.50;53.60;;;;;;5070742;28;20036;-69
2022/04/14 07:50:11;;;;;;;1.37;1.07;;;20.50;53.50;;;;;;5070297;28;20044;-69
2022/04/14 07:52:55;;;;;;;3.63;1.30;;;20.60;53.50;;;;;;5070224;28;20040;-69
2022/04/14 07:55:32;;;;;;;2.50;1.25;;;20.60;53.50;;;;;;5070505;28;20036;-69
2022/04/14 07:58:01;;;;;;;2.20;1.10;;;20.70;53.40;;;;;;5069038;28;20040;-69
2022/04/14 08:00:27;;;;;;;2.65;1.17;;;20.70;53.40;;;;;;5070559;28;20522;-69
2022/04/14 08:03:01;;;;;;;1.35;1.00;;;20.70;53.30;;;;;;5072909;28;20052;-69
2022/04/14 08:05:29;;;;;;;1.30;0.98;;;20.80;53.40;;;;;;5075006;28;20557;-69
2022/04/14 08:07:55;;;;;;;2.63;1.48;;;20.80;53.30;;;;;;5073838;28;20032;-69
2022/04/14 08:10:21;;;;;;;1.55;1.00;;;20.90;53.30;;;;;;5074413;28;20048;-69
2022/04/14 08:12:47;;;;;;;1.60;1.00;;;20.90;53.30;;;;;;5073116;28;20450;-68
2022/04/14 08:15:13;;;;;;;3.17;1.20;;;20.90;53.20;;;;;;5074347;28;20040;-69
2022/04/14 08:17:41;;;;;;;2.10;1.17;;;21.00;53.20;;;;;;5072639;28;20060;-69
2022/04/14 08:20:08;;;;;;;1.25;1.08;;;21.00;53.10;;;;;;5073861;28;20052;-68
2022/04/14 08:22:51;;;;;;;3.13;1.30;;;21.10;53.10;;;;;;5073803;28;20119;-69
2022/04/14 08:25:39;;;;;;;1.15;0.88;;;21.10;53.00;;;;;;5073988;28;20450;-68
2022/04/14 08:28:05;;;;;;;2.00;1.17;;;21.10;53.00;;;;;;5072498;28;20454;-69
2022/04/14 08:30:33;;;;;;;1.92;1.02;;;21.20;53.00;;;;;;5074161;28;20287;-69
2022/04/14 08:33:03;;;;;;;1.88;1.00;;;21.20;52.80;;;;;;5073989;28;20040;-69
2022/04/14 08:35:31;;;;;;;1.30;1.00;;;21.30;52.90;;;;;;5073944;28;20064;-69
2022/04/14 08:37:57;;;;;;;2.05;1.05;;;21.30;52.80;;;;;;5073105;28;20083;-69
2022/04/14 08:40:25;;;;;;;1.73;1.00;;;21.40;52.80;;;;;;5073816;28;20064;-69
2022/04/14 08:43:04;;;;;;;2.25;1.08;;;21.40;52.70;;;;;;5072645;28;20048;-69
2022/04/14 08:45:32;;;;;;;2.15;1.00;;;21.40;52.70;;;;;;5073661;28;20121;-69
2022/04/14 08:48:00;;;;;;;1.77;0.93;;;21.40;52.60;;;;;;5073493;28;20094;-68
2022/04/14 08:50:26;;;;;;;2.25;1.00;;;21.50;52.60;;;;;;5073467;28;20119;-69
2022/04/14 08:52:52;;;;;;;1.90;1.00;;;21.50;52.60;;;;;;5073512;28;20052;-69
2022/04/14 08:55:18;;;;;;;0.98;0.90;;;21.60;52.60;;;;;;5073103;28;20399;-69
2022/04/14 08:57:44;;;;;;;2.67;1.05;;;21.60;52.50;;;;;;5072597;28;20068;-68
2022/04/14 09:00:12;;;;;;;1.85;1.10;;;21.60;52.50;;;;;;5072921;28;20072;-68
2022/04/14 09:02:38;;;;;;;1.90;1.00;;;21.60;52.40;;;;;;5073418;28;20037;-68
2022/04/14 09:05:05;;;;;;;2.80;1.42;;;21.70;52.40;;;;;;5073210;28;20068;-69
2022/04/14 09:07:31;;;;;;;1.90;1.10;;;21.70;52.30;;;;;;5073728;28;20037;-68
2022/04/14 09:09:57;;;;;;;2.42;1.10;;;21.70;52.30;;;;;;5072648;28;20044;-69
2022/04/14 09:12:23;;;;;;;1.48;1.10;;;21.70;52.20;;;;;;5073229;28;20047;-69
2022/04/14 09:14:49;;;;;;;1.52;1.00;;;21.80;52.20;;;;;;5071193;28;20047;-69
2022/04/14 09:17:15;;;;;;;1.52;1.10;;;21.80;52.20;;;;;;5073044;28;20044;-69
2022/04/14 09:19:44;;;;;;;1.33;0.90;;;21.80;52.10;;;;;;5071020;28;20040;-68
2022/04/14 09:22:14;;;;;;;1.85;1.00;;;21.90;52.10;;;;;;5073054;28;20059;-69
2022/04/14 09:24:54;;;;;;;2.25;1.10;;;21.80;52.10;;;;;;5072691;28;20487;-68
2022/04/14 09:27:39;;;;;;;2.35;1.20;;;21.90;52.70;;;;;;5072846;28;20037;-69
2022/04/14 09:30:07;;;;;;;1.77;1.10;;;22.00;52.00;;;;;;5072453;28;20036;-69
2022/04/14 09:32:37;;;;;;;1.88;1.20;;;21.90;51.90;;;;;;5072883;28;20392;-68
2022/04/14 09:35:20;;;;;;;1.50;0.93;;;22.00;51.90;;;;;;5072913;28;20115;-68
2022/04/14 09:37:46;;;;;;;2.08;1.13;;;22.00;51.90;;;;;;5072772;28;20036;-68
2022/04/14 09:40:12;;;;;;;1.67;1.00;;;22.00;51.80;;;;;;5072243;28;20068;-68
2022/04/14 09:42:43;;;;;;;1.42;1.00;;;22.00;52.60;;;;;;5071705;28;20033;-67
2022/04/14 09:45:23;;;;;;;1.75;1.15;;;22.10;51.80;;;;;;5065384;28;20047;-67
2022/04/14 09:47:50;;;;;;;2.38;1.30;;;22.10;51.80;;;;;;5052683;28;20045;-67
2022/04/14 09:50:32;;;;;;;1.20;1.10;;;22.10;51.70;;;;;;5052200;28;20048;-67
2022/04/14 09:53:00;;;;;;;1.85;1.10;;;22.10;51.60;;;;;;5052141;28;20452;-66
2022/04/14 09:55:26;;;;;;;;;;;22.10;51.50;;;;;;5053078;28;20033;-67
2022/04/14 09:58:08;;;;;;;1.58;0.95;;;22.10;51.50;;;;;;5050888;28;19924;-67
2022/04/14 10:00:48;;;;;;;1.20;1.10;;;22.20;51.50;;;;;;5056366;28;20032;-67
2022/04/14 10:03:22;;;;;;;1.60;1.10;;;22.20;51.50;;;;;;5067926;28;20123;-66
2022/04/14 10:05:50;;;;;;;1.23;1.00;;;22.20;51.50;;;;;;5072197;28;20041;-66
2022/04/14 10:08:16;;;;;;;1.38;0.98;;;22.20;51.40;;;;;;5072050;28;20123;-66
2022/04/14 10:10:47;;;;;;;1.45;0.93;;;22.30;51.30;;;;;;5072157;28;20051;-66
2022/04/14 10:13:15;;;;;;;1.73;1.02;;;22.30;51.30;;;;;;5071777;28;20519;-67
2022/04/14 10:15:42;;;;;;;1.05;0.90;;;22.30;51.20;;;;;;5070982;28;20050;-66
2022/04/14 10:18:13;;;;;;;1.37;1.07;;;22.30;51.20;;;;;;5071603;28;20144;-66
2022/04/14 10:20:42;;;;;;;1.20;1.10;;;22.40;51.10;;;;;;5071739;28;20278;-68
2022/04/14 10:23:09;;;;;;;1.52;1.05;;;22.30;51.00;;;;;;5071870;28;20102;-67
2022/04/14 10:25:37;;;;;;;0.98;0.88;;;22.30;51.00;;;;;;5071257;28;20072;-66
2022/04/14 10:28:05;;;;;;;1.25;1.00;;;22.30;50.90;;;;;;5071242;28;20377;-67
2022/04/14 10:30:31;;;;;;;1.50;1.02;;;22.30;50.90;;;;;;5070748;28;20045;-66
2022/04/14 10:32:57;;;;;;;1.90;0.90;;;22.30;50.90;;;;;;5071760;28;20051;-66
2022/04/14 10:35:26;;;;;;;1.40;1.02;;;22.30;51.00;;;;;;5071646;28;20036;-66
2022/04/14 10:38:08;;;;;;;1.17;0.90;;;22.40;50.90;;;;;;5071690;28;20084;-67
2022/04/14 10:40:36;;;;;;;1.00;0.90;;;22.30;50.80;;;;;;5071373;28;20453;-66
2022/04/14 10:43:05;;;;;;;2.37;0.90;;;22.40;50.80;;;;;;5070465;28;20483;-66
2022/04/14 10:45:47;;;;;;;1.95;1.00;;;22.30;50.80;;;;;;5070442;28;20283;-67
2022/04/14 10:48:32;;;;;;;1.17;1.00;;;22.30;50.70;;;;;;5070176;28;20040;-67
2022/04/14 10:51:17;;;;;;;1.58;1.00;;;22.30;50.80;;;;;;5071471;28;20036;-66
2022/04/14 10:53:50;;;;;;;1.00;0.80;;;22.30;50.90;;;;;;5071242;28;20048;-67
2022/04/14 10:56:37;;;;;;;1.55;1.00;;;22.30;50.80;;;;;;5071252;28;20040;-67
2022/04/14 10:59:09;;;;;;;1.15;0.90;;;22.30;50.80;;;;;;5069960;28;20056;-67
2022/04/14 11:01:47;;;;;;;1.23;0.88;;;22.20;50.70;;;;;;5070921;28;20040;-66
2022/04/14 11:04:42;;;;;;;1.10;0.82;;;22.30;50.70;;;;;;5070912;28;20113;-67
2022/04/14 11:07:20;;;;;;;1.20;1.10;;;22.20;50.50;;;;;;5069850;28;20052;-67
2022/04/14 11:09:59;;;;;;;1.13;0.90;;;22.20;50.60;;;;;;5070191;28;20106;-66
2022/04/14 11:12:55;;;;;;;1.42;1.13;;;22.20;50.60;;;;;;5070983;28;20041;-67
2022/04/14 11:15:31;;;;;;;1.15;0.90;;;22.20;50.60;;;;;;5070698;28;20047;-66
2022/04/14 11:18:04;;;;;;;1.27;1.08;;;22.20;50.60;;;;;;5070175;28;20056;-67
2022/04/14 11:20:30;;;;;;;0.80;0.80;;;22.20;50.50;;;;;;5070719;28;20041;-67
2022/04/14 11:23:15;;;;;;;1.55;0.95;;;22.20;50.60;;;;;;5069316;28;20086;-67
2022/04/14 11:25:45;;;;;;;1.92;0.90;;;22.20;50.40;;;;;;5070749;28;20082;-67
2022/04/14 11:28:27;;;;;;;2.38;1.00;;;22.20;50.50;;;;;;5070334;28;20037;-66
2022/04/14 11:31:22;;;;;;;1.00;0.80;;;22.30;50.50;;;;;;5069702;28;20040;-66
2022/04/14 11:33:50;;;;;;;1.65;1.00;;;22.30;50.40;;;;;;5070917;28;20055;-66
2022/04/14 11:36:20;;;;;;;1.52;1.02;;;22.30;50.40;;;;;;5070381;28;20384;-67
2022/04/14 11:38:52;;;;;;;1.38;0.95;;;22.30;50.40;;;;;;5070078;28;20037;-66
2022/04/14 11:41:31;;;;;;;2.65;1.00;;;22.30;50.40;;;;;;5070573;28;20436;-66
2022/04/14 11:43:56;;;;;;;1.55;1.00;;;22.30;50.40;;;;;;5070010;28;20561;-67
2022/04/14 11:46:25;;;;;;;2.45;1.20;;;22.30;50.40;;;;;;5070784;28;20119;-67
2022/04/14 11:48:50;;;;;;;;;;;22.40;50.30;;;;;;5070764;28;20556;-67
2022/04/14 11:51:16;;;;;;;2.60;0.90;;;22.40;50.30;;;;;;5070962;28;19916;-67
2022/04/14 11:53:42;;;;;;;1.52;1.02;;;22.40;50.30;;;;;;5070764;28;20805;-67
2022/04/14 11:56:18;;;;;;;2.45;0.90;;;22.30;50.10;;;;;;5070473;28;20086;-67
2022/04/14 11:58:45;;;;;;;1.10;1.00;;;22.40;50.10;;;;;;5069312;28;20550;-67
2022/04/14 12:01:12;;;;;;;1.05;0.80;;;22.30;50.00;;;;;;5070322;28;20487;-66
2022/04/14 12:03:38;;;;;;;1.13;0.82;;;22.40;50.00;;;;;;5070330;28;20593;-67
2022/04/14 12:06:11;;;;;;;1.70;0.90;;;22.40;50.00;;;;;;5070470;28;20554;-67
2022/04/14 12:08:37;;;;;;;1.25;0.80;;;22.40;49.80;;;;;;5070110;28;20416;-67
2022/04/14 12:11:13;;;;;;;1.60;0.98;;;22.40;49.90;;;;;;5070181;28;20083;-66
2022/04/14 12:13:40;;;;;;;1.73;1.10;;;22.40;49.80;;;;;;5070464;28;20158;-66
2022/04/14 12:16:07;;;;;;;1.10;0.90;;;22.40;49.70;;;;;;5068218;28;20044;-67
2022/04/14 12:18:34;;;;;;;1.25;0.80;;;22.50;49.70;;;;;;5068517;28;20056;-66
2022/04/14 12:21:00;;;;;;;1.58;0.90;;;22.50;49.80;;;;;;5070137;28;20032;-66
2022/04/14 12:23:26;;;;;;;2.58;1.00;;;22.60;49.70;;;;;;5070135;28;20040;-67
2022/04/14 12:25:53;;;;;;;2.42;0.77;;;22.70;49.60;;;;;;5069955;28;20517;-67
2022/04/14 12:28:19;;;;;;;1.85;0.73;;;22.90;50.10;;;;;;5064865;28;20325;-66
2022/04/14 12:30:44;;;;;;;1.25;0.90;;;22.90;49.00;;;;;;5048663;28;20140;-67
2022/04/14 12:33:10;;;;;;;1.00;0.80;;;23.00;48.90;;;;;;5050008;28;20132;-67
2022/04/14 12:35:36;;;;;;;0.95;0.82;;;23.10;48.80;;;;;;5050336;28;20067;-67
2022/04/14 12:38:15;;;;;;;1.25;0.85;;;23.30;48.40;;;;;;5049937;28;20053;-67
2022/04/14 12:40:59;;;;;;;;;;;23.60;47.80;;;;;;5050592;28;20049;-66
2022/04/14 12:43:28;;;;;;;1.67;0.85;;;23.90;47.50;;;;;;5082960;28;19917;-67
2022/04/14 12:45:54;;;;;;;0.95;0.80;;;24.10;47.00;;;;;;5049196;28;20045;-67
2022/04/14 12:48:36;;;;;;;0.90;0.77;;;24.10;47.00;;;;;;5051037;28;20084;-67
2022/04/14 12:51:02;;;;;;;1.50;0.90;;;23.90;46.70;;;;;;5054044;28;20045;-67
2022/04/14 12:53:28;;;;;;;0.95;0.80;;;23.80;46.90;;;;;;5053538;28;20506;-66